Overview Statistics Trail Chart Weather Telemetry Raw packets
 

This is the latest recevied weather packets stored in our database for station/object KB9HUO. If no packets are shown the sender has not sent any weather packets the latest 10 day(s).

<< 76 77 78 79 80 81 82 >>
Time Temp. Humidity Pressure Rain* Wind** Luminosity Snow
1788118694 31.67° C 53% 1019.7 hPa 0 mm - 76 W/m² -
1788118393 31.67° C 58% 1019.7 hPa 0 mm - 86 W/m² -
1788118090 31.11° C 56% 1019.8 hPa 0 mm - 78 W/m² -
1788117789 31.67° C 52% 1019.7 hPa 0 mm - 156 W/m² -
1788117485 32.22° C 52% 1020 hPa 0 mm - 69 W/m² -
1788117184 31.67° C 57% 1019.8 hPa 0 mm - 447 W/m² -
1788116880 31.67° C 51% 1020 hPa 0 mm - 201 W/m² -
1788116575 31.67° C 54% 1020.1 hPa 0 mm - 235 W/m² -
1788116273 31.67° C 52% 1020.2 hPa 0 mm - 117 W/m² -
1788115969 32.22° C 52% 1020.2 hPa 0 mm - 96 W/m² -
1788115669 32.22° C 58% 1020.3 hPa 0 mm - 706 W/m² -
1788115368 32.22° C 55% 1020.3 hPa 0 mm - 739 W/m² -
1788115063 31.67° C 54% 1020.4 hPa 0 mm - 683 W/m² -
1788114759 32.22° C 51% 1020.4 hPa 0 mm - 672 W/m² -
1788114459 32.22° C 53% 1020.5 hPa 0 mm - 698 W/m² -
1788114155 32.22° C 53% 1020.5 hPa 0 mm - 702 W/m² -
1788113864 31.67° C 56% 1020.7 hPa 0 mm - 689 W/m² -
1788113546 32.22° C 55% 1020.5 hPa 0 mm - 712 W/m² -
1788113245 32.22° C 59% 1020.7 hPa 0 mm - 712 W/m² -
1788112940 32.22° C 53% 1020.8 hPa 0 mm - 716 W/m² -
1788112640 32.22° C 54% 1020.9 hPa 0 mm - 738 W/m² -
1788112334 31.67° C 58% 1021 hPa 0 mm - 719 W/m² -
1788112029 31.67° C 58% 1021 hPa 0 mm - 721 W/m² -
1788111726 31.67° C 56% 1021 hPa 0 mm - 721 W/m² -
1788111425 31.67° C 56% 1021.1 hPa 0 mm - 724 W/m² -

* Rain latest hour (hover to see other rain measurements)
** Current wind speed in m/s (hover to see current wind gust speed)